sensor_id;sensor_type;location;lat;lon;timestamp;temperature;humidity
71117;SHT31;58775;46.992;9.518;2023-04-25T00:01:44;9.02;91.91
71117;SHT31;58775;46.992;9.518;2023-04-25T00:03:45;8.81;91.79
71117;SHT31;58775;46.992;9.518;2023-04-25T00:05:46;8.68;92.33
71117;SHT31;58775;46.992;9.518;2023-04-25T00:07:49;8.69;92.67
71117;SHT31;58775;46.992;9.518;2023-04-25T00:09:50;8.74;93.40
71117;SHT31;58775;46.992;9.518;2023-04-25T00:11:52;8.78;91.99
71117;SHT31;58775;46.992;9.518;2023-04-25T00:13:53;8.81;92.04
71117;SHT31;58775;46.992;9.518;2023-04-25T00:15:55;8.88;91.86
71117;SHT31;58775;46.992;9.518;2023-04-25T00:17:59;8.85;92.13
71117;SHT31;58775;46.992;9.518;2023-04-25T00:20:01;8.69;91.38
71117;SHT31;58775;46.992;9.518;2023-04-25T00:22:05;8.75;90.87
71117;SHT31;58775;46.992;9.518;2023-04-25T00:24:07;8.81;89.95
71117;SHT31;58775;46.992;9.518;2023-04-25T00:26:08;8.93;89.37
71117;SHT31;58775;46.992;9.518;2023-04-25T00:28:11;8.81;88.96
71117;SHT31;58775;46.992;9.518;2023-04-25T00:30:13;8.82;89.06
71117;SHT31;58775;46.992;9.518;2023-04-25T00:32:15;8.75;90.39
71117;SHT31;58775;46.992;9.518;2023-04-25T00:34:17;8.61;90.43
71117;SHT31;58775;46.992;9.518;2023-04-25T00:36:18;8.52;89.79
71117;SHT31;58775;46.992;9.518;2023-04-25T00:38:20;8.60;88.75
71117;SHT31;58775;46.992;9.518;2023-04-25T00:40:22;8.65;88.36
71117;SHT31;58775;46.992;9.518;2023-04-25T00:42:25;8.60;88.34
71117;SHT31;58775;46.992;9.518;2023-04-25T00:44:27;8.57;89.17
71117;SHT31;58775;46.992;9.518;2023-04-25T00:46:31;8.60;90.04
71117;SHT31;58775;46.992;9.518;2023-04-25T00:48:32;8.60;89.02
71117;SHT31;58775;46.992;9.518;2023-04-25T00:50:34;8.65;87.96
71117;SHT31;58775;46.992;9.518;2023-04-25T00:52:40;8.72;87.66
71117;SHT31;58775;46.992;9.518;2023-04-25T00:54:42;8.48;87.25
71117;SHT31;58775;46.992;9.518;2023-04-25T00:56:45;8.45;88.61
71117;SHT31;58775;46.992;9.518;2023-04-25T00:58:46;8.41;88.52
71117;SHT31;58775;46.992;9.518;2023-04-25T01:00:50;8.34;89.28
71117;SHT31;58775;46.992;9.518;2023-04-25T01:02:53;8.38;90.15
71117;SHT31;58775;46.992;9.518;2023-04-25T01:04:55;8.44;90.18
71117;SHT31;58775;46.992;9.518;2023-04-25T01:06:56;8.62;90.09
71117;SHT31;58775;46.992;9.518;2023-04-25T01:08:59;8.71;90.22
71117;SHT31;58775;46.992;9.518;2023-04-25T01:11:01;8.74;89.65
71117;SHT31;58775;46.992;9.518;2023-04-25T01:13:03;8.68;89.86
71117;SHT31;58775;46.992;9.518;2023-04-25T01:15:05;8.64;90.19
71117;SHT31;58775;46.992;9.518;2023-04-25T01:17:06;8.64;90.32
71117;SHT31;58775;46.992;9.518;2023-04-25T01:19:09;8.65;90.79
71117;SHT31;58775;46.992;9.518;2023-04-25T01:21:14;8.43;91.19
71117;SHT31;58775;46.992;9.518;2023-04-25T01:23:16;8.31;90.89
71117;SHT31;58775;46.992;9.518;2023-04-25T01:25:18;8.43;90.74
71117;SHT31;58775;46.992;9.518;2023-04-25T01:27:21;8.57;90.26
71117;SHT31;58775;46.992;9.518;2023-04-25T01:29:23;8.72;90.33
71117;SHT31;58775;46.992;9.518;2023-04-25T01:31:25;8.61;90.40
71117;SHT31;58775;46.992;9.518;2023-04-25T01:33:29;8.50;91.08
71117;SHT31;58775;46.992;9.518;2023-04-25T01:35:37;8.48;91.73
71117;SHT31;58775;46.992;9.518;2023-04-25T01:37:42;8.29;92.22
71117;SHT31;58775;46.992;9.518;2023-04-25T01:39:46;8.20;93.53
71117;SHT31;58775;46.992;9.518;2023-04-25T01:41:48;8.33;92.57
71117;SHT31;58775;46.992;9.518;2023-04-25T01:43:50;8.37;91.69
71117;SHT31;58775;46.992;9.518;2023-04-25T01:45:52;8.23;91.64
71117;SHT31;58775;46.992;9.518;2023-04-25T01:47:55;8.16;91.92
71117;SHT31;58775;46.992;9.518;2023-04-25T01:50:02;8.23;92.47
71117;SHT31;58775;46.992;9.518;2023-04-25T01:52:04;8.31;91.71
71117;SHT31;58775;46.992;9.518;2023-04-25T01:54:05;8.44;90.59
71117;SHT31;58775;46.992;9.518;2023-04-25T01:56:07;8.38;89.26
71117;SHT31;58775;46.992;9.518;2023-04-25T01:58:10;8.14;90.20
71117;SHT31;58775;46.992;9.518;2023-04-25T02:00:31;8.07;91.71
71117;SHT31;58775;46.992;9.518;2023-04-25T02:02:33;7.97;92.36
71117;SHT31;58775;46.992;9.518;2023-04-25T02:04:35;8.11;91.46
71117;SHT31;58775;46.992;9.518;2023-04-25T02:06:36;8.19;91.00
71117;SHT31;58775;46.992;9.518;2023-04-25T02:08:38;8.27;90.10
71117;SHT31;58775;46.992;9.518;2023-04-25T02:10:39;8.29;89.64
71117;SHT31;58775;46.992;9.518;2023-04-25T02:12:49;8.09;90.84
71117;SHT31;58775;46.992;9.518;2023-04-25T02:15:08;7.97;92.69
71117;SHT31;58775;46.992;9.518;2023-04-25T02:17:22;7.89;92.36
71117;SHT31;58775;46.992;9.518;2023-04-25T02:19:25;7.85;91.83
71117;SHT31;58775;46.992;9.518;2023-04-25T02:21:26;7.93;92.02
71117;SHT31;58775;46.992;9.518;2023-04-25T02:23:28;8.00;91.03
71117;SHT31;58775;46.992;9.518;2023-04-25T02:25:29;8.17;89.88
71117;SHT31;58775;46.992;9.518;2023-04-25T02:27:31;8.20;88.54
71117;SHT31;58775;46.992;9.518;2023-04-25T02:29:36;8.11;89.59
71117;SHT31;58775;46.992;9.518;2023-04-25T02:31:37;8.11;90.20
71117;SHT31;58775;46.992;9.518;2023-04-25T02:33:39;8.00;90.41
71117;SHT31;58775;46.992;9.518;2023-04-25T02:35:40;7.96;90.74
71117;SHT31;58775;46.992;9.518;2023-04-25T02:37:42;7.89;91.95
71117;SHT31;58775;46.992;9.518;2023-04-25T02:39:43;7.78;92.56
71117;SHT31;58775;46.992;9.518;2023-04-25T02:41:44;7.82;91.89
71117;SHT31;58775;46.992;9.518;2023-04-25T02:43:46;7.93;91.28
71117;SHT31;58775;46.992;9.518;2023-04-25T02:45:47;7.97;90.19
71117;SHT31;58775;46.992;9.518;2023-04-25T02:47:48;7.96;91.07
71117;SHT31;58775;46.992;9.518;2023-04-25T02:49:50;7.99;91.31
71117;SHT31;58775;46.992;9.518;2023-04-25T02:51:51;8.17;90.90
71117;SHT31;58775;46.992;9.518;2023-04-25T02:53:53;8.06;91.11
71117;SHT31;58775;46.992;9.518;2023-04-25T02:55:54;8.17;89.90
71117;SHT31;58775;46.992;9.518;2023-04-25T02:57:59;8.26;89.49
71117;SHT31;58775;46.992;9.518;2023-04-25T03:00:19;8.11;90.87
71117;SHT31;58775;46.992;9.518;2023-04-25T03:02:21;8.16;90.23
71117;SHT31;58775;46.992;9.518;2023-04-25T03:04:22;8.29;89.49
71117;SHT31;58775;46.992;9.518;2023-04-25T03:06:24;8.23;88.79
71117;SHT31;58775;46.992;9.518;2023-04-25T03:08:27;8.30;87.76
71117;SHT31;58775;46.992;9.518;2023-04-25T03:10:34;8.26;87.89
71117;SHT31;58775;46.992;9.518;2023-04-25T03:12:39;7.99;90.11
71117;SHT31;58775;46.992;9.518;2023-04-25T03:14:41;8.04;89.34
71117;SHT31;58775;46.992;9.518;2023-04-25T03:16:42;7.86;90.34
71117;SHT31;58775;46.992;9.518;2023-04-25T03:18:44;7.68;91.03
71117;SHT31;58775;46.992;9.518;2023-04-25T03:20:46;7.65;90.39
71117;SHT31;58775;46.992;9.518;2023-04-25T03:22:47;7.52;91.09
71117;SHT31;58775;46.992;9.518;2023-04-25T03:24:49;7.68;89.83
71117;SHT31;58775;46.992;9.518;2023-04-25T03:26:51;7.45;89.51
71117;SHT31;58775;46.992;9.518;2023-04-25T03:28:52;7.28;88.14
71117;SHT31;58775;46.992;9.518;2023-04-25T03:30:54;7.32;88.34
71117;SHT31;58775;46.992;9.518;2023-04-25T03:32:55;7.34;89.16
71117;SHT31;58775;46.992;9.518;2023-04-25T03:34:57;7.35;90.04
71117;SHT31;58775;46.992;9.518;2023-04-25T03:37:00;7.49;89.38
71117;SHT31;58775;46.992;9.518;2023-04-25T03:39:03;7.22;89.87
71117;SHT31;58775;46.992;9.518;2023-04-25T03:41:06;7.34;83.10
71117;SHT31;58775;46.992;9.518;2023-04-25T03:43:20;7.49;83.12
71117;SHT31;58775;46.992;9.518;2023-04-25T03:45:28;7.58;84.62
71117;SHT31;58775;46.992;9.518;2023-04-25T03:47:29;7.52;86.97
71117;SHT31;58775;46.992;9.518;2023-04-25T03:49:31;7.48;85.37
71117;SHT31;58775;46.992;9.518;2023-04-25T03:51:35;7.35;86.81
71117;SHT31;58775;46.992;9.518;2023-04-25T03:53:37;7.42;85.27
71117;SHT31;58775;46.992;9.518;2023-04-25T03:56:07;7.38;85.89
71117;SHT31;58775;46.992;9.518;2023-04-25T03:58:12;7.35;85.55
71117;SHT31;58775;46.992;9.518;2023-04-25T04:00:14;7.39;84.42
71117;SHT31;58775;46.992;9.518;2023-04-25T04:02:17;7.29;86.89
71117;SHT31;58775;46.992;9.518;2023-04-25T04:04:19;7.49;84.24
71117;SHT31;58775;46.992;9.518;2023-04-25T04:06:22;7.49;83.67
71117;SHT31;58775;46.992;9.518;2023-04-25T04:08:29;7.34;86.32
71117;SHT31;58775;46.992;9.518;2023-04-25T04:10:31;7.38;85.53
71117;SHT31;58775;46.992;9.518;2023-04-25T04:12:33;7.47;82.79
71117;SHT31;58775;46.992;9.518;2023-04-25T04:14:36;7.54;84.65
71117;SHT31;58775;46.992;9.518;2023-04-25T04:16:38;7.54;83.10
71117;SHT31;58775;46.992;9.518;2023-04-25T04:18:40;7.35;86.05
71117;SHT31;58775;46.992;9.518;2023-04-25T04:20:41;7.31;83.51
71117;SHT31;58775;46.992;9.518;2023-04-25T04:22:43;7.32;84.86
71117;SHT31;58775;46.992;9.518;2023-04-25T04:24:47;7.24;86.04
71117;SHT31;58775;46.992;9.518;2023-04-25T04:26:56;7.18;87.01
71117;SHT31;58775;46.992;9.518;2023-04-25T04:29:15;7.25;85.63
71117;SHT31;58775;46.992;9.518;2023-04-25T04:31:32;7.31;86.77
71117;SHT31;58775;46.992;9.518;2023-04-25T04:33:34;7.29;87.65
71117;SHT31;58775;46.992;9.518;2023-04-25T04:35:39;7.21;86.63
71117;SHT31;58775;46.992;9.518;2023-04-25T04:37:41;7.44;84.55
71117;SHT31;58775;46.992;9.518;2023-04-25T04:39:47;7.48;86.47
71117;SHT31;58775;46.992;9.518;2023-04-25T04:41:59;7.36;86.72
71117;SHT31;58775;46.992;9.518;2023-04-25T04:44:11;7.31;88.53
71117;SHT31;58775;46.992;9.518;2023-04-25T04:46:31;7.44;88.22
71117;SHT31;58775;46.992;9.518;2023-04-25T04:48:56;7.63;87.86
71117;SHT31;58775;46.992;9.518;2023-04-25T04:51:16;7.66;87.12
71117;SHT31;58775;46.992;9.518;2023-04-25T04:53:35;7.72;87.10
71117;SHT31;58775;46.992;9.518;2023-04-25T04:55:48;7.62;87.85
71117;SHT31;58775;46.992;9.518;2023-04-25T04:58:04;7.69;87.69
71117;SHT31;58775;46.992;9.518;2023-04-25T05:00:14;7.80;86.62
71117;SHT31;58775;46.992;9.518;2023-04-25T05:02:16;7.97;85.10
71117;SHT31;58775;46.992;9.518;2023-04-25T05:04:23;8.00;85.62
71117;SHT31;58775;46.992;9.518;2023-04-25T05:06:44;7.83;86.67
71117;SHT31;58775;46.992;9.518;2023-04-25T05:09:04;7.92;86.73
71117;SHT31;58775;46.992;9.518;2023-04-25T05:11:28;8.11;86.50
71117;SHT31;58775;46.992;9.518;2023-04-25T05:13:59;8.06;87.58
71117;SHT31;58775;46.992;9.518;2023-04-25T05:16:20;8.16;85.67
71117;SHT31;58775;46.992;9.518;2023-04-25T05:18:33;8.23;85.38
71117;SHT31;58775;46.992;9.518;2023-04-25T05:21:34;8.11;86.74
71117;SHT31;58775;46.992;9.518;2023-04-25T05:23:56;8.16;87.04
71117;SHT31;58775;46.992;9.518;2023-04-25T05:25:57;8.29;86.49
71117;SHT31;58775;46.992;9.518;2023-04-25T05:28:26;8.24;86.25
71117;SHT31;58775;46.992;9.518;2023-04-25T05:30:48;8.30;85.81
71117;SHT31;58775;46.992;9.518;2023-04-25T05:32:56;8.38;85.56
71117;SHT31;58775;46.992;9.518;2023-04-25T05:34:57;8.50;85.94
71117;SHT31;58775;46.992;9.518;2023-04-25T05:37:07;8.47;86.21
71117;SHT31;58775;46.992;9.518;2023-04-25T05:39:16;8.33;87.24
71117;SHT31;58775;46.992;9.518;2023-04-25T05:41:41;8.47;87.43
71117;SHT31;58775;46.992;9.518;2023-04-25T05:44:01;8.60;85.84
71117;SHT31;58775;46.992;9.518;2023-04-25T05:46:18;8.61;85.28
71117;SHT31;58775;46.992;9.518;2023-04-25T05:48:28;8.68;85.30
71117;SHT31;58775;46.992;9.518;2023-04-25T05:50:44;8.31;87.73
71117;SHT31;58775;46.992;9.518;2023-04-25T05:53:09;8.33;88.33
71117;SHT31;58775;46.992;9.518;2023-04-25T05:55:14;8.51;87.95
71117;SHT31;58775;46.992;9.518;2023-04-25T05:57:25;8.57;88.04
71117;SHT31;58775;46.992;9.518;2023-04-25T05:59:31;8.68;88.05
71117;SHT31;58775;46.992;9.518;2023-04-25T06:01:32;8.68;88.13
71117;SHT31;58775;46.992;9.518;2023-04-25T06:03:34;8.48;89.81
71117;SHT31;58775;46.992;9.518;2023-04-25T06:05:36;8.40;89.46
71117;SHT31;58775;46.992;9.518;2023-04-25T06:07:37;8.37;89.69
71117;SHT31;58775;46.992;9.518;2023-04-25T06:09:39;8.30;89.26
71117;SHT31;58775;46.992;9.518;2023-04-25T06:11:41;8.26;89.56
71117;SHT31;58775;46.992;9.518;2023-04-25T06:13:43;8.48;88.32
71117;SHT31;58775;46.992;9.518;2023-04-25T06:15:46;8.61;85.06
71117;SHT31;58775;46.992;9.518;2023-04-25T06:17:47;8.88;85.03
71117;SHT31;58775;46.992;9.518;2023-04-25T06:19:50;8.92;84.76
71117;SHT31;58775;46.992;9.518;2023-04-25T06:21:52;8.71;84.20
71117;SHT31;58775;46.992;9.518;2023-04-25T06:23:54;8.71;83.17
71117;SHT31;58775;46.992;9.518;2023-04-25T06:25:58;8.71;80.60
71117;SHT31;58775;46.992;9.518;2023-04-25T06:28:01;8.93;78.93
71117;SHT31;58775;46.992;9.518;2023-04-25T06:30:03;8.98;78.97
71117;SHT31;58775;46.992;9.518;2023-04-25T06:32:07;9.13;79.54
71117;SHT31;58775;46.992;9.518;2023-04-25T06:34:09;9.22;80.07
71117;SHT31;58775;46.992;9.518;2023-04-25T06:36:14;9.33;78.46
71117;SHT31;58775;46.992;9.518;2023-04-25T06:38:19;9.37;78.39
71117;SHT31;58775;46.992;9.518;2023-04-25T06:40:25;9.50;77.83
71117;SHT31;58775;46.992;9.518;2023-04-25T06:42:28;9.58;76.43
71117;SHT31;58775;46.992;9.518;2023-04-25T06:44:33;8.95;77.70
71117;SHT31;58775;46.992;9.518;2023-04-25T06:46:36;8.81;77.53
71117;SHT31;58775;46.992;9.518;2023-04-25T06:48:39;8.76;75.42
71117;SHT31;58775;46.992;9.518;2023-04-25T06:50:41;9.01;74.90
71117;SHT31;58775;46.992;9.518;2023-04-25T06:52:42;9.32;76.57
71117;SHT31;58775;46.992;9.518;2023-04-25T06:54:44;9.48;77.85
71117;SHT31;58775;46.992;9.518;2023-04-25T06:57:10;9.48;76.84
71117;SHT31;58775;46.992;9.518;2023-04-25T06:59:11;9.54;76.88
71117;SHT31;58775;46.992;9.518;2023-04-25T07:01:15;9.69;76.80
71117;SHT31;58775;46.992;9.518;2023-04-25T07:03:17;9.69;75.76
71117;SHT31;58775;46.992;9.518;2023-04-25T07:05:19;9.73;75.29
71117;SHT31;58775;46.992;9.518;2023-04-25T07:07:21;9.69;75.25
71117;SHT31;58775;46.992;9.518;2023-04-25T07:09:28;9.81;76.91
71117;SHT31;58775;46.992;9.518;2023-04-25T07:11:31;9.97;77.51
71117;SHT31;58775;46.992;9.518;2023-04-25T07:13:33;9.99;76.12
71117;SHT31;58775;46.992;9.518;2023-04-25T07:15:35;10.15;73.65
71117;SHT31;58775;46.992;9.518;2023-04-25T07:17:37;10.22;74.60
71117;SHT31;58775;46.992;9.518;2023-04-25T07:19:39;10.42;75.19
71117;SHT31;58775;46.992;9.518;2023-04-25T07:21:42;10.28;73.13
71117;SHT31;58775;46.992;9.518;2023-04-25T07:23:45;10.26;73.48
71117;SHT31;58775;46.992;9.518;2023-04-25T07:25:52;10.39;73.01
71117;SHT31;58775;46.992;9.518;2023-04-25T07:27:57;10.46;74.34
71117;SHT31;58775;46.992;9.518;2023-04-25T07:30:01;10.56;72.83
71117;SHT31;58775;46.992;9.518;2023-04-25T07:32:03;10.92;73.85
71117;SHT31;58775;46.992;9.518;2023-04-25T07:34:05;11.03;74.40
71117;SHT31;58775;46.992;9.518;2023-04-25T07:36:07;10.73;71.87
71117;SHT31;58775;46.992;9.518;2023-04-25T07:38:09;10.87;71.72
71117;SHT31;58775;46.992;9.518;2023-04-25T07:40:11;11.01;70.88
71117;SHT31;58775;46.992;9.518;2023-04-25T07:42:18;11.16;69.46
71117;SHT31;58775;46.992;9.518;2023-04-25T07:44:20;11.35;69.45
71117;SHT31;58775;46.992;9.518;2023-04-25T07:46:21;11.18;68.44
71117;SHT31;58775;46.992;9.518;2023-04-25T07:48:23;11.31;71.85
71117;SHT31;58775;46.992;9.518;2023-04-25T07:50:26;11.61;68.46
71117;SHT31;58775;46.992;9.518;2023-04-25T07:52:28;11.92;67.77
71117;SHT31;58775;46.992;9.518;2023-04-25T07:54:37;11.75;67.06
71117;SHT31;58775;46.992;9.518;2023-04-25T07:56:46;11.62;69.13
71117;SHT31;58775;46.992;9.518;2023-04-25T07:58:48;11.93;66.65
71117;SHT31;58775;46.992;9.518;2023-04-25T08:00:52;12.23;66.12
71117;SHT31;58775;46.992;9.518;2023-04-25T08:03:20;12.32;64.40
71117;SHT31;58775;46.992;9.518;2023-04-25T08:05:22;12.46;65.86
71117;SHT31;58775;46.992;9.518;2023-04-25T08:07:31;12.70;65.96
71117;SHT31;58775;46.992;9.518;2023-04-25T08:09:37;12.53;68.85
71117;SHT31;58775;46.992;9.518;2023-04-25T08:11:41;12.88;62.61
71117;SHT31;58775;46.992;9.518;2023-04-25T08:13:46;12.53;63.34
71117;SHT31;58775;46.992;9.518;2023-04-25T08:15:48;12.32;63.25
71117;SHT31;58775;46.992;9.518;2023-04-25T08:17:49;12.47;64.60
71117;SHT31;58775;46.992;9.518;2023-04-25T08:19:51;12.94;63.82
71117;SHT31;58775;46.992;9.518;2023-04-25T08:22:08;12.84;65.95
71117;SHT31;58775;46.992;9.518;2023-04-25T08:24:37;12.59;64.93
71117;SHT31;58775;46.992;9.518;2023-04-25T08:26:40;11.96;66.14
71117;SHT31;58775;46.992;9.518;2023-04-25T08:28:44;12.13;68.44
71117;SHT31;58775;46.992;9.518;2023-04-25T08:30:48;12.28;67.74
71117;SHT31;58775;46.992;9.518;2023-04-25T08:32:52;12.19;68.53
71117;SHT31;58775;46.992;9.518;2023-04-25T08:35:37;11.92;68.79
71117;SHT31;58775;46.992;9.518;2023-04-25T08:37:47;11.98;69.38
71117;SHT31;58775;46.992;9.518;2023-04-25T08:40:28;12.19;69.66
71117;SHT31;58775;46.992;9.518;2023-04-25T08:43:01;12.32;67.25
71117;SHT31;58775;46.992;9.518;2023-04-25T08:45:20;12.54;69.44
71117;SHT31;58775;46.992;9.518;2023-04-25T08:47:25;12.56;69.16
71117;SHT31;58775;46.992;9.518;2023-04-25T08:49:45;12.79;66.64
71117;SHT31;58775;46.992;9.518;2023-04-25T08:52:30;12.43;66.64
71117;SHT31;58775;46.992;9.518;2023-04-25T08:54:35;12.26;66.94
71117;SHT31;58775;46.992;9.518;2023-04-25T08:56:47;12.22;66.65
71117;SHT31;58775;46.992;9.518;2023-04-25T08:58:49;11.72;65.35
71117;SHT31;58775;46.992;9.518;2023-04-25T09:00:54;11.45;68.05
71117;SHT31;58775;46.992;9.518;2023-04-25T09:02:59;11.27;69.70
71117;SHT31;58775;46.992;9.518;2023-04-25T09:05:08;10.42;69.85
71117;SHT31;58775;46.992;9.518;2023-04-25T09:07:14;9.78;74.31
71117;SHT31;58775;46.992;9.518;2023-04-25T09:09:20;9.23;77.77
71117;SHT31;58775;46.992;9.518;2023-04-25T09:11:24;9.22;79.72
71117;SHT31;58775;46.992;9.518;2023-04-25T09:13:28;8.72;77.26
71117;SHT31;58775;46.992;9.518;2023-04-25T09:15:56;8.89;79.17
71117;SHT31;58775;46.992;9.518;2023-04-25T09:18:32;8.89;78.09
71117;SHT31;58775;46.992;9.518;2023-04-25T09:20:44;9.03;81.28
71117;SHT31;58775;46.992;9.518;2023-04-25T09:22:46;9.37;79.71
71117;SHT31;58775;46.992;9.518;2023-04-25T09:24:49;9.36;81.97
71117;SHT31;58775;46.992;9.518;2023-04-25T09:26:54;9.01;76.28
71117;SHT31;58775;46.992;9.518;2023-04-25T09:29:06;9.20;76.99
71117;SHT31;58775;46.992;9.518;2023-04-25T09:31:21;9.13;77.13
71117;SHT31;58775;46.992;9.518;2023-04-25T09:33:31;9.30;79.28
71117;SHT31;58775;46.992;9.518;2023-04-25T09:37:40;9.54;81.89
71117;SHT31;58775;46.992;9.518;2023-04-25T09:40:06;9.80;79.63
71117;SHT31;58775;46.992;9.518;2023-04-25T09:42:25;9.81;78.64
71117;SHT31;58775;46.992;9.518;2023-04-25T09:44:28;9.36;80.31
71117;SHT31;58775;46.992;9.518;2023-04-25T09:46:35;9.11;76.93
71117;SHT31;58775;46.992;9.518;2023-04-25T09:48:39;9.44;77.39
71117;SHT31;58775;46.992;9.518;2023-04-25T09:50:41;9.48;76.68
71117;SHT31;58775;46.992;9.518;2023-04-25T09:52:45;9.12;78.74
71117;SHT31;58775;46.992;9.518;2023-04-25T09:55:03;9.15;77.03
71117;SHT31;58775;46.992;9.518;2023-04-25T09:59:16;9.78;79.28
71117;SHT31;58775;46.992;9.518;2023-04-25T10:01:20;10.08;77.92
71117;SHT31;58775;46.992;9.518;2023-04-25T10:03:40;10.45;77.77
71117;SHT31;58775;46.992;9.518;2023-04-25T10:06:00;10.62;75.45
71117;SHT31;58775;46.992;9.518;2023-04-25T10:08:04;10.84;73.09
71117;SHT31;58775;46.992;9.518;2023-04-25T10:10:07;11.45;75.54
71117;SHT31;58775;46.992;9.518;2023-04-25T10:12:09;11.89;72.69
71117;SHT31;58775;46.992;9.518;2023-04-25T10:14:13;12.15;71.08
71117;SHT31;58775;46.992;9.518;2023-04-25T10:16:16;12.51;68.74
71117;SHT31;58775;46.992;9.518;2023-04-25T10:18:19;12.79;68.43
71117;SHT31;58775;46.992;9.518;2023-04-25T10:20:22;12.97;66.83
71117;SHT31;58775;46.992;9.518;2023-04-25T10:22:54;13.05;67.77
71117;SHT31;58775;46.992;9.518;2023-04-25T10:24:58;13.11;70.36
71117;SHT31;58775;46.992;9.518;2023-04-25T10:27:00;13.19;66.51
71117;SHT31;58775;46.992;9.518;2023-04-25T10:29:03;13.04;68.84
71117;SHT31;58775;46.992;9.518;2023-04-25T10:31:08;13.24;68.09
71117;SHT31;58775;46.992;9.518;2023-04-25T10:33:17;13.08;68.61
71117;SHT31;58775;46.992;9.518;2023-04-25T10:35:25;12.61;70.00
71117;SHT31;58775;46.992;9.518;2023-04-25T10:37:30;12.41;72.37
71117;SHT31;58775;46.992;9.518;2023-04-25T10:39:33;12.26;72.38
71117;SHT31;58775;46.992;9.518;2023-04-25T10:41:56;12.02;71.21
71117;SHT31;58775;46.992;9.518;2023-04-25T10:43:59;12.28;70.49
71117;SHT31;58775;46.992;9.518;2023-04-25T10:46:14;11.86;72.05
71117;SHT31;58775;46.992;9.518;2023-04-25T10:48:27;11.69;73.21
71117;SHT31;58775;46.992;9.518;2023-04-25T10:50:37;11.48;73.51
71117;SHT31;58775;46.992;9.518;2023-04-25T10:52:40;10.86;77.52
71117;SHT31;58775;46.992;9.518;2023-04-25T10:56:48;11.61;75.96
71117;SHT31;58775;46.992;9.518;2023-04-25T10:58:51;11.51;76.53
71117;SHT31;58775;46.992;9.518;2023-04-25T11:00:53;11.59;72.41
71117;SHT31;58775;46.992;9.518;2023-04-25T11:02:59;11.74;71.92
71117;SHT31;58775;46.992;9.518;2023-04-25T11:05:02;11.89;75.57
71117;SHT31;58775;46.992;9.518;2023-04-25T11:07:17;12.08;72.76
71117;SHT31;58775;46.992;9.518;2023-04-25T11:09:24;12.19;75.37
71117;SHT31;58775;46.992;9.518;2023-04-25T11:11:26;11.98;73.54
71117;SHT31;58775;46.992;9.518;2023-04-25T11:13:32;11.92;69.96
71117;SHT31;58775;46.992;9.518;2023-04-25T11:15:36;12.33;72.20
71117;SHT31;58775;46.992;9.518;2023-04-25T11:17:40;12.47;73.62
71117;SHT31;58775;46.992;9.518;2023-04-25T11:19:41;11.74;70.56
71117;SHT31;58775;46.992;9.518;2023-04-25T11:21:57;11.23;73.98
71117;SHT31;58775;46.992;9.518;2023-04-25T11:24:08;10.84;72.35
71117;SHT31;58775;46.992;9.518;2023-04-25T11:26:32;11.34;73.68
71117;SHT31;58775;46.992;9.518;2023-04-25T11:28:35;11.74;74.45
71117;SHT31;58775;46.992;9.518;2023-04-25T11:30:37;11.17;71.63
71117;SHT31;58775;46.992;9.518;2023-04-25T11:32:40;10.89;73.62
71117;SHT31;58775;46.992;9.518;2023-04-25T11:34:44;10.99;74.23
71117;SHT31;58775;46.992;9.518;2023-04-25T11:36:52;10.58;72.43
71117;SHT31;58775;46.992;9.518;2023-04-25T11:38:55;10.42;74.30
71117;SHT31;58775;46.992;9.518;2023-04-25T11:40:58;9.98;74.84
71117;SHT31;58775;46.992;9.518;2023-04-25T11:43:00;10.55;72.94
71117;SHT31;58775;46.992;9.518;2023-04-25T11:45:03;10.34;72.64
71117;SHT31;58775;46.992;9.518;2023-04-25T11:47:05;9.95;73.29
71117;SHT31;58775;46.992;9.518;2023-04-25T11:49:09;10.41;74.87
71117;SHT31;58775;46.992;9.518;2023-04-25T11:51:13;10.28;75.25
71117;SHT31;58775;46.992;9.518;2023-04-25T11:53:18;10.17;75.61
71117;SHT31;58775;46.992;9.518;2023-04-25T11:55:23;10.46;75.67
71117;SHT31;58775;46.992;9.518;2023-04-25T11:57:32;10.67;73.47
71117;SHT31;58775;46.992;9.518;2023-04-25T11:59:37;10.15;72.06
71117;SHT31;58775;46.992;9.518;2023-04-25T12:01:47;10.36;75.08
71117;SHT31;58775;46.992;9.518;2023-04-25T12:03:50;10.26;75.51
71117;SHT31;58775;46.992;9.518;2023-04-25T12:05:55;10.44;77.14
71117;SHT31;58775;46.992;9.518;2023-04-25T12:08:14;10.29;77.06
71117;SHT31;58775;46.992;9.518;2023-04-25T12:10:17;10.39;71.77
71117;SHT31;58775;46.992;9.518;2023-04-25T12:12:18;10.70;70.51
71117;SHT31;58775;46.992;9.518;2023-04-25T12:14:25;11.03;71.77
71117;SHT31;58775;46.992;9.518;2023-04-25T12:16:28;11.27;73.48
71117;SHT31;58775;46.992;9.518;2023-04-25T12:18:29;11.31;71.16
71117;SHT31;58775;46.992;9.518;2023-04-25T12:20:31;11.38;71.00
71117;SHT31;58775;46.992;9.518;2023-04-25T12:22:34;11.10;69.47
71117;SHT31;58775;46.992;9.518;2023-04-25T12:24:35;11.40;70.95
71117;SHT31;58775;46.992;9.518;2023-04-25T12:26:57;11.41;70.62
71117;SHT31;58775;46.992;9.518;2023-04-25T12:29:00;11.45;70.33
71117;SHT31;58775;46.992;9.518;2023-04-25T12:31:04;11.65;68.30
71117;SHT31;58775;46.992;9.518;2023-04-25T12:33:06;11.96;70.77
71117;SHT31;58775;46.992;9.518;2023-04-25T12:35:08;11.64;71.21
71117;SHT31;58775;46.992;9.518;2023-04-25T12:37:10;11.85;65.26
71117;SHT31;58775;46.992;9.518;2023-04-25T12:39:17;12.18;66.74
71117;SHT31;58775;46.992;9.518;2023-04-25T12:41:20;11.01;65.70
71117;SHT31;58775;46.992;9.518;2023-04-25T12:43:22;11.28;69.24
71117;SHT31;58775;46.992;9.518;2023-04-25T12:45:24;11.50;66.00
71117;SHT31;58775;46.992;9.518;2023-04-25T12:47:27;10.96;67.24
71117;SHT31;58775;46.992;9.518;2023-04-25T12:49:28;11.26;67.86
71117;SHT31;58775;46.992;9.518;2023-04-25T12:51:30;11.08;70.03
71117;SHT31;58775;46.992;9.518;2023-04-25T12:53:34;10.99;69.94
71117;SHT31;58775;46.992;9.518;2023-04-25T12:55:38;11.35;70.46
71117;SHT31;58775;46.992;9.518;2023-04-25T12:57:40;11.51;71.11
71117;SHT31;58775;46.992;9.518;2023-04-25T12:59:42;11.58;67.16
71117;SHT31;58775;46.992;9.518;2023-04-25T13:01:44;11.31;67.60
71117;SHT31;58775;46.992;9.518;2023-04-25T13:03:46;11.04;70.48
71117;SHT31;58775;46.992;9.518;2023-04-25T13:05:49;10.89;69.34
71117;SHT31;58775;46.992;9.518;2023-04-25T13:07:51;11.13;71.18
71117;SHT31;58775;46.992;9.518;2023-04-25T13:09:53;11.32;69.57
71117;SHT31;58775;46.992;9.518;2023-04-25T13:11:55;11.40;69.08
71117;SHT31;58775;46.992;9.518;2023-04-25T13:14:01;11.48;70.64
71117;SHT31;58775;46.992;9.518;2023-04-25T13:16:04;12.05;72.10
71117;SHT31;58775;46.992;9.518;2023-04-25T13:18:05;12.43;71.11
71117;SHT31;58775;46.992;9.518;2023-04-25T13:20:08;12.98;71.73
71117;SHT31;58775;46.992;9.518;2023-04-25T13:22:11;13.04;67.28
71117;SHT31;58775;46.992;9.518;2023-04-25T13:24:12;13.53;67.48
71117;SHT31;58775;46.992;9.518;2023-04-25T13:26:14;13.34;68.65
71117;SHT31;58775;46.992;9.518;2023-04-25T13:28:16;12.32;66.12
71117;SHT31;58775;46.992;9.518;2023-04-25T13:30:18;12.57;64.19
71117;SHT31;58775;46.992;9.518;2023-04-25T13:32:19;12.76;65.76